createdAt,value
2023-06-20T00:00:26.934Z,16.10
2023-06-20T00:05:28.692Z,15.40
2023-06-20T00:10:30.436Z,15.65
2023-06-20T00:15:32.621Z,17.80
2023-06-20T00:20:34.321Z,16.15
2023-06-20T00:25:35.960Z,15.65
2023-06-20T00:30:37.678Z,16.02
2023-06-20T00:35:39.480Z,17.65
2023-06-20T00:40:41.134Z,16.42
2023-06-20T00:45:43.050Z,17.52
2023-06-20T00:50:45.104Z,16.15
2023-06-20T00:55:47.837Z,17.58
2023-06-20T01:00:49.541Z,17.80
2023-06-20T01:06:05.643Z,17.05
2023-06-20T01:11:39.709Z,16.55
2023-06-20T01:16:52.101Z,18.23
2023-06-20T01:22:01.324Z,16.70
2023-06-20T01:27:09.912Z,16.50
2023-06-20T01:32:16.794Z,17.95
2023-06-20T01:37:23.421Z,19.75
2023-06-20T01:42:27.725Z,17.17
2023-06-20T01:47:31.764Z,16.58
2023-06-20T01:52:36.465Z,19.88
2023-06-20T01:57:38.863Z,17.85
2023-06-20T02:02:41.574Z,17.65
2023-06-20T02:07:45.686Z,18.05
2023-06-20T02:12:50.480Z,20.85
2023-06-20T02:17:53.938Z,20.38
2023-06-20T02:22:57.017Z,19.58
2023-06-20T02:28:00.281Z,17.67
2023-06-20T02:33:06.427Z,19.02
2023-06-20T02:38:09.003Z,19.08
2023-06-20T02:43:10.720Z,19.42
2023-06-20T02:48:31.010Z,18.52
2023-06-20T02:53:47.223Z,17.67
2023-06-20T02:58:55.577Z,21.27
2023-06-20T03:04:02.688Z,17.25
2023-06-20T03:09:05.803Z,21.73
2023-06-20T03:14:13.767Z,17.92
2023-06-20T03:19:16.004Z,17.23
2023-06-20T03:24:18.687Z,16.75
2023-06-20T03:29:20.495Z,18.10
2023-06-20T03:34:22.286Z,17.05
2023-06-20T03:39:23.968Z,17.15
2023-06-20T03:44:26.326Z,16.63
2023-06-20T03:49:28.083Z,17.17
2023-06-20T03:54:30.263Z,14.07
2023-06-20T03:59:33.916Z,15.20
2023-06-20T04:04:35.705Z,14.90
2023-06-20T04:09:37.443Z,14.40
2023-06-20T04:14:39.272Z,18.13
2023-06-20T04:19:40.966Z,13.18
2023-06-20T04:24:42.750Z,17.83
2023-06-20T04:29:44.479Z,15.57
2023-06-20T04:34:47.879Z,15.65
2023-06-20T04:39:50.208Z,16.55
2023-06-20T04:44:52.521Z,15.20
2023-06-20T04:49:54.196Z,14.50
2023-06-20T04:55:03.031Z,12.18
2023-06-20T05:00:08.892Z,23.58
2023-06-20T05:05:12.040Z,15.02
2023-06-20T05:10:14.530Z,14.45
2023-06-20T05:15:16.207Z,12.18
2023-06-20T05:20:17.935Z,16.70
2023-06-20T05:25:19.771Z,12.45
2023-06-20T05:30:21.421Z,17.15
2023-06-20T05:35:23.245Z,14.13
2023-06-20T05:40:25.202Z,15.60
2023-06-20T05:45:27.093Z,11.93
2023-06-20T05:50:29.105Z,12.68
2023-06-20T05:55:30.952Z,15.07
2023-06-20T06:00:34.210Z,12.10
2023-06-20T06:05:35.912Z,12.95
2023-06-20T06:10:38.253Z,12.75
2023-06-20T06:15:43.065Z,15.30
2023-06-20T06:20:52.553Z,12.43
2023-06-20T06:25:54.394Z,12.75
2023-06-20T06:31:00.436Z,11.65
2023-06-20T06:36:02.556Z,12.38
2023-06-20T06:41:04.655Z,11.95
2023-06-20T06:46:06.482Z,14.27
2023-06-20T06:51:08.588Z,11.13
2023-06-20T06:56:10.229Z,11.07
2023-06-20T07:01:11.960Z,11.80
2023-06-20T07:06:13.618Z,12.65
2023-06-20T07:11:15.285Z,12.48
2023-06-20T07:16:17.113Z,16.65
2023-06-20T07:21:18.835Z,16.58
2023-06-20T07:26:20.486Z,11.32
2023-06-20T07:31:22.418Z,27.40
2023-06-20T07:36:24.340Z,12.85
2023-06-20T07:41:25.996Z,15.35
2023-06-20T07:46:27.741Z,17.65
2023-06-20T07:51:31.618Z,12.20
2023-06-20T07:56:33.390Z,11.23
2023-06-20T08:01:35.183Z,15.15
2023-06-20T08:06:37.251Z,13.77
2023-06-20T08:11:39.353Z,13.63
2023-06-20T08:16:41.156Z,17.77
2023-06-20T08:21:43.042Z,17.67
2023-06-20T08:26:44.827Z,12.00
2023-06-20T08:31:47.829Z,9.05
2023-06-20T08:36:51.402Z,9.32
2023-06-20T08:41:53.369Z,13.85
2023-06-20T08:46:58.619Z,9.13
2023-06-20T08:52:10.038Z,15.82
2023-06-20T08:57:12.505Z,6.80
2023-06-20T09:02:14.487Z,7.70
2023-06-20T09:07:20.151Z,7.85
2023-06-20T09:12:22.051Z,6.78
2023-06-20T09:17:23.797Z,9.43
2023-06-20T09:22:26.584Z,7.53
2023-06-20T09:27:34.467Z,5.90
2023-06-20T09:32:38.659Z,6.38
2023-06-20T09:37:40.320Z,8.02
2023-06-20T09:42:43.589Z,7.05
2023-06-20T09:47:46.146Z,6.43
2023-06-20T09:52:56.307Z,7.38
2023-06-20T09:58:01.105Z,7.43
2023-06-20T10:03:07.920Z,7.43
2023-06-20T10:08:09.992Z,9.00
2023-06-20T10:13:13.223Z,7.15
2023-06-20T10:18:36.425Z,6.82
2023-06-20T10:23:39.720Z,10.40
2023-06-20T10:28:42.647Z,8.18
2023-06-20T10:33:46.712Z,8.20
2023-06-20T10:38:54.416Z,7.95
2023-06-20T10:44:03.225Z,7.50
2023-06-20T10:49:05.678Z,8.05
2023-06-20T10:54:11.341Z,8.43
2023-06-20T10:59:15.096Z,12.57
2023-06-20T11:04:18.282Z,9.40
2023-06-20T11:09:26.939Z,9.98
2023-06-20T11:14:28.630Z,8.07
2023-06-20T11:19:37.340Z,10.93
2023-06-20T11:24:39.643Z,7.35
2023-06-20T11:29:41.441Z,12.10
2023-06-20T11:34:57.673Z,7.07
2023-06-20T11:40:00.133Z,10.50
2023-06-20T11:45:12.156Z,9.52
2023-06-20T11:50:24.623Z,8.85
2023-06-20T11:55:45.765Z,9.80
2023-06-20T12:00:58.588Z,7.70
2023-06-20T12:06:00.298Z,7.13
2023-06-20T12:11:04.007Z,11.38
2023-06-20T12:16:06.300Z,8.60
2023-06-20T12:21:08.228Z,7.63
2023-06-20T12:26:10.374Z,6.82
2023-06-20T12:31:13.300Z,11.73
2023-06-20T12:36:16.766Z,11.55
2023-06-20T12:41:18.837Z,6.68
2023-06-20T12:46:20.516Z,11.65
2023-06-20T12:51:22.586Z,8.73
2023-06-20T12:56:24.497Z,7.63
2023-06-20T13:01:26.309Z,12.38
2023-06-20T13:06:28.098Z,7.78
2023-06-20T13:11:29.823Z,9.25
2023-06-20T13:16:33.422Z,13.35
2023-06-20T13:21:35.759Z,9.15
2023-06-20T13:26:37.438Z,9.82
2023-06-20T13:31:39.146Z,12.77
2023-06-20T13:36:40.900Z,14.82
2023-06-20T13:41:42.607Z,11.57
2023-06-20T13:46:44.508Z,10.35
2023-06-20T13:51:46.539Z,10.10
2023-06-20T13:56:48.272Z,9.93
2023-06-20T14:01:50.032Z,10.77
2023-06-20T14:06:52.357Z,10.95
2023-06-20T14:11:54.030Z,9.98
2023-06-20T14:16:56.516Z,10.07
2023-06-20T14:21:58.199Z,10.50
2023-06-20T14:27:00.017Z,12.07
2023-06-20T14:32:01.695Z,10.07
2023-06-20T14:37:03.595Z,11.43
2023-06-20T14:42:05.571Z,9.73
2023-06-20T14:47:07.751Z,14.57
2023-06-20T14:52:09.547Z,9.20
2023-06-20T14:57:11.491Z,11.02
2023-06-20T15:02:13.204Z,10.43
2023-06-20T15:07:15.105Z,10.20
2023-06-20T15:12:16.784Z,12.52
2023-06-20T15:17:18.616Z,10.68
2023-06-20T15:22:20.280Z,12.85
2023-06-20T15:27:21.929Z,12.50
2023-06-20T15:32:23.645Z,10.70
2023-06-20T15:37:25.368Z,10.75
2023-06-20T15:42:27.193Z,11.90
2023-06-20T15:47:29.331Z,9.45
2023-06-20T15:52:31.273Z,9.77
2023-06-20T15:57:32.951Z,11.57
2023-06-20T16:02:34.761Z,11.02
2023-06-20T16:07:36.494Z,12.43
2023-06-20T16:12:39.134Z,12.18
2023-06-20T16:17:40.938Z,12.32
2023-06-20T16:22:42.962Z,12.02
2023-06-20T16:27:45.149Z,11.05
2023-06-20T16:32:47.059Z,11.40
2023-06-20T16:37:49.173Z,12.43
2023-06-20T16:42:50.918Z,12.88
2023-06-20T16:47:53.101Z,11.88
2023-06-20T16:52:54.875Z,11.63
2023-06-20T16:57:56.540Z,11.45
2023-06-20T17:02:58.308Z,11.50
2023-06-20T17:07:59.991Z,12.63
2023-06-20T17:13:01.668Z,13.63
2023-06-20T17:18:03.631Z,12.88
2023-06-20T17:23:05.365Z,12.30
2023-06-20T17:28:07.073Z,11.18
2023-06-20T17:33:08.827Z,13.32
2023-06-20T17:38:10.496Z,14.55
2023-06-20T17:43:12.187Z,10.90
2023-06-20T17:48:13.910Z,13.98
2023-06-20T17:53:15.703Z,11.75
2023-06-20T17:58:17.348Z,12.20
2023-06-20T18:03:19.531Z,12.00
2023-06-20T18:08:22.432Z,11.32
2023-06-20T18:13:24.245Z,11.80
2023-06-20T18:18:25.882Z,12.25
2023-06-20T18:23:27.562Z,13.40
2023-06-20T18:28:29.191Z,16.42
2023-06-20T18:33:30.885Z,13.93
2023-06-20T18:38:33.331Z,11.57
2023-06-20T18:43:35.033Z,11.82
2023-06-20T18:48:36.719Z,11.68
2023-06-20T18:53:39.236Z,12.90
2023-06-20T18:58:40.881Z,13.43
2023-06-20T19:03:42.776Z,11.75
2023-06-20T19:08:44.511Z,11.82
2023-06-20T19:13:46.364Z,13.18
2023-06-20T19:18:48.080Z,13.98
2023-06-20T19:23:52.329Z,20.13
2023-06-20T19:28:54.089Z,13.45
2023-06-20T19:33:55.871Z,12.80
2023-06-20T19:38:57.501Z,14.13
2023-06-20T19:43:59.216Z,14.25
2023-06-20T19:49:02.424Z,14.48
2023-06-20T19:54:04.320Z,21.55
2023-06-20T19:59:06.009Z,15.20
2023-06-20T20:04:07.880Z,14.75
2023-06-20T20:09:09.793Z,18.38
2023-06-20T20:14:11.456Z,14.90
2023-06-20T20:19:13.273Z,16.85
2023-06-20T20:24:15.929Z,16.75
2023-06-20T20:29:18.414Z,15.27
2023-06-20T20:34:20.060Z,14.60
2023-06-20T20:39:21.732Z,17.00
2023-06-20T20:44:24.825Z,16.58
2023-06-20T20:49:26.518Z,15.18
2023-06-20T20:54:28.174Z,15.80
2023-06-20T20:59:29.825Z,15.73
2023-06-20T21:04:31.544Z,16.17
2023-06-20T21:09:33.189Z,17.15
2023-06-20T21:14:34.934Z,20.00
2023-06-20T21:19:36.580Z,16.92
2023-06-20T21:24:38.431Z,17.42
2023-06-20T21:29:40.136Z,17.48
2023-06-20T21:34:41.788Z,18.42
2023-06-20T21:39:43.882Z,20.15
2023-06-20T21:44:45.558Z,17.25
2023-06-20T21:49:47.455Z,17.05
2023-06-20T21:54:49.116Z,16.85
2023-06-20T21:59:50.913Z,17.88
2023-06-20T22:04:52.566Z,21.40
2023-06-20T22:10:03.137Z,19.95
2023-06-20T22:15:07.003Z,19.30
2023-06-20T22:20:12.316Z,19.35
2023-06-20T22:25:14.114Z,19.13
2023-06-20T22:30:15.799Z,19.95
2023-06-20T22:35:17.569Z,19.05
2023-06-20T22:40:19.212Z,18.67
2023-06-20T22:45:20.941Z,20.98
2023-06-20T22:50:23.565Z,19.35
2023-06-20T22:55:25.328Z,21.02
2023-06-20T23:00:27.173Z,21.50
2023-06-20T23:05:29.190Z,20.48
2023-06-20T23:10:31.268Z,20.48
2023-06-20T23:15:33.070Z,20.25
2023-06-20T23:20:38.328Z,19.77
2023-06-20T23:25:41.620Z,19.33
2023-06-20T23:30:43.517Z,24.35
2023-06-20T23:35:46.001Z,18.15
2023-06-20T23:40:47.925Z,21.85
2023-06-20T23:45:49.761Z,20.98
2023-06-20T23:50:52.309Z,22.13
2023-06-20T23:55:54.957Z,19.58
